UUWWHEGN

Guest
Details From UUWW - Vnukovo
To HEGN - Hurghada Intl
Flight Number -
Tags Generated
Created
Modified
Stats Distance 1,714 nm / 3,174 km
Max Altitude 0 ft / 0 m
Waypoints 6
Social Downloads 1
Likes 0
Share VATSIM

Download

Looking for another format? Having issues loading an existing format? Contact us
Advertisement - Login to hide

Notes

Generated

Route

UUWW OBONA RASPU EGORA HGD HEGN

ID Type Via Altitude Latitude Longitude Leg Dist Tot Dist Heading (true) Name
O UUWW APT - 0 ft / 0 m 55.58804˚ 37.24603˚ - 0 nm - -
OBONA FIX - 0 ft / 0 m 51.21000˚ 36.28000˚ 265 nm 265 nm 188° / 187° -
RASPU FIX - 0 ft / 0 m 47.24646˚ 35.78839˚ 238 nm 504 nm 185° / 184° -
EGORA FIX - 0 ft / 0 m 31.06694˚ 34.13500˚ 974 nm 1478 nm 185° / 184° -
HGD VOR - 0 ft / 0 m 27.17776˚ 33.79639˚ 234 nm 1712 nm 184° / 184° HURGHADA VOR-DME
O HEGN APT - 0 ft / 0 m 27.19576˚ 33.79425˚ 1 nm 1714 nm 354° / 354° -

Altitude Profile

Advertisement - Login to hide

Weather


0- 5 10 15 20 25 30 35+ Temperature / ° C

Clouds and Precipitation
Forecast for 2018-05-23 00:00 UTC. Updated 3 hours ago

Ground ~20,000 ft ~40,000 ft Winds

UUWW

Details ICAO UUWW (VKO)
Name VNUKOVO
Region Russia
Timezone Europe/Moscow (UTC+3.0)
Stats Elevation 685 ft / 209 m (AMSL)
Location 55.596061° 37.267664°
Runways 2
Magnetic Variation 11.014° E

METAR

UUWW 230130Z 21001MPS 5000 BR FEW000 11/11 Q1024 R24/000070 TEMPO 0400 FG RMK QBB020

Decode

TAF

TAF AMD UUWW 230059Z 2300/2324 VRB01MPS 4000 BR SCT030 TX22/2312Z TN10/2302Z TEMPO 2300/2303 0400 FG BECMG 2305/2307 28003MPS 9000 NSW BECMG 2322/2323 36004MPS

Decode

Departure Runways

ID Width Length Bearing (true) Bearing (mag) Surface Threshold Offset Overrun Length
02 197 ft / 60 m 9,993 ft / 3,046 m 23.36° 12.35° Asphalt 0 ft / 0 m 140 ft / 43 m
06 197 ft / 60 m 9,785 ft / 2,982 m 68.26° 57.25° Asphalt 0 ft / 0 m 250 ft / 76 m
20 197 ft / 60 m 9,993 ft / 3,046 m 203.37° 192.36° Asphalt 0 ft / 0 m 150 ft / 46 m
24 197 ft / 60 m 9,785 ft / 2,982 m 248.29° 237.28° Asphalt 0 ft / 0 m 260 ft / 79 m

HEGN

Details ICAO HEGN (HRG)
Name HURGHADA INTL
Region Egypt
Timezone Africa/Cairo (UTC+2.0)
Stats Elevation 52 ft / 16 m (AMSL)
Location 27.178308° 33.799397°
Runways 1
Magnetic Variation 4.246° E

METAR

HEGN 230100Z 28003KT CAVOK 28/02 Q1010 NOSIG

Decode

TAF

Not found

Destination Runways

ID Width Length Bearing (true) Bearing (mag) Surface Threshold Offset Overrun Length
16 148 ft / 45 m 13,169 ft / 4,014 m 165.29° 161.04° Asphalt 985 ft / 300 m 0 ft / 0 m
34 148 ft / 45 m 13,169 ft / 4,014 m 345.29° 341.04° Asphalt 0 ft / 0 m 200 ft / 61 m

Approach Navaids

Runway Type Ident Frequency Range Bearing (true) Bearing (mag) Slope Elevation
34 Localiser HIL 110.30 MHz 18 nm / 33 km 347.43° 343.19° - 56 ft / 17 m (AMSL)
34 Glidescope HIL 110.30 MHz 10 nm / 19 km 345.29° 341.04° 3.00° 64 ft / 20 m (AMSL)
34 DME HIL 110.30 MHz 18 nm / 33 km - - - 30 ft / 9 m (AMSL)

Popular Alternatives